createdAt,value
2023-01-29T00:01:59.873Z,1.80
2023-01-29T00:04:26.976Z,1.66
2023-01-29T00:06:54.043Z,1.76
2023-01-29T00:09:21.203Z,1.79
2023-01-29T00:11:48.480Z,1.67
2023-01-29T00:14:15.753Z,1.68
2023-01-29T00:16:42.983Z,1.63
2023-01-29T00:19:10.153Z,1.59
2023-01-29T00:21:37.322Z,1.72
2023-01-29T00:24:04.726Z,1.60
2023-01-29T00:26:32.233Z,1.62
2023-01-29T00:29:00.685Z,1.63
2023-01-29T00:31:28.110Z,1.64
2023-01-29T00:33:55.228Z,1.63
2023-01-29T00:36:23.462Z,1.68
2023-01-29T00:39:00.634Z,1.63
2023-01-29T00:41:49.216Z,1.64
2023-01-29T00:44:35.237Z,1.59
2023-01-29T00:47:03.436Z,1.66
2023-01-29T00:49:38.266Z,1.59
2023-01-29T00:52:24.009Z,1.59
2023-01-29T00:54:55.794Z,1.50
2023-01-29T00:57:25.053Z,1.56
2023-01-29T00:59:52.267Z,1.51
2023-01-29T01:02:38.074Z,1.51
2023-01-29T01:05:07.794Z,1.43
2023-01-29T01:07:34.905Z,1.47
2023-01-29T01:10:20.440Z,1.52
2023-01-29T01:13:08.584Z,1.47
2023-01-29T01:15:38.576Z,1.42
2023-01-29T01:18:06.346Z,1.38
2023-01-29T01:20:36.327Z,1.37
2023-01-29T01:23:04.223Z,1.42
2023-01-29T01:25:31.486Z,1.40
2023-01-29T01:28:02.725Z,1.31
2023-01-29T01:30:29.814Z,1.38
2023-01-29T01:32:56.875Z,1.33
2023-01-29T01:35:24.026Z,1.35
2023-01-29T01:37:51.057Z,1.39
2023-01-29T01:40:23.611Z,1.47
2023-01-29T01:42:59.706Z,1.38
2023-01-29T01:45:36.585Z,1.39
2023-01-29T01:48:26.937Z,1.30
2023-01-29T01:51:05.194Z,1.37
2023-01-29T01:53:42.506Z,1.35
2023-01-29T01:56:21.396Z,1.34
2023-01-29T01:58:56.943Z,1.35
2023-01-29T02:01:29.919Z,1.40
2023-01-29T02:04:48.872Z,1.28
2023-01-29T02:07:34.969Z,1.29
2023-01-29T02:10:20.844Z,1.28
2023-01-29T02:12:48.531Z,1.37
2023-01-29T02:15:15.561Z,1.33
2023-01-29T02:17:42.588Z,1.25
2023-01-29T02:20:26.528Z,1.27
2023-01-29T02:23:54.600Z,1.32
2023-01-29T02:26:49.572Z,1.25
2023-01-29T02:29:34.530Z,1.36
2023-01-29T02:32:22.297Z,1.28
2023-01-29T02:35:26.158Z,1.25
2023-01-29T02:38:23.594Z,1.44
2023-01-29T02:41:01.141Z,1.32
2023-01-29T02:43:53.082Z,1.32
2023-01-29T02:46:51.072Z,1.33
2023-01-29T02:49:50.113Z,1.30
2023-01-29T02:52:30.037Z,1.17
2023-01-29T02:55:12.580Z,1.18
2023-01-29T02:57:45.000Z,1.20
2023-01-29T03:00:27.797Z,1.23
2023-01-29T03:02:56.551Z,1.31
2023-01-29T03:05:44.898Z,1.24
2023-01-29T03:08:18.562Z,1.21
2023-01-29T03:10:57.599Z,1.26
2023-01-29T03:14:07.490Z,1.20
2023-01-29T03:16:46.245Z,1.20
2023-01-29T03:19:34.544Z,1.16
2023-01-29T03:22:04.544Z,1.19
2023-01-29T03:25:00.961Z,1.25
2023-01-29T03:28:17.300Z,1.23
2023-01-29T03:31:26.900Z,1.25
2023-01-29T03:34:35.237Z,1.18
2023-01-29T03:37:38.001Z,1.24
2023-01-29T03:40:07.127Z,1.21
2023-01-29T03:42:51.775Z,1.20
2023-01-29T03:45:31.976Z,1.20
2023-01-29T03:48:22.669Z,1.21
2023-01-29T03:51:08.252Z,1.26
2023-01-29T03:54:07.647Z,1.24
2023-01-29T03:56:50.379Z,1.16
2023-01-29T03:59:41.184Z,1.23
2023-01-29T04:02:16.826Z,1.22
2023-01-29T04:04:50.209Z,1.15
2023-01-29T04:07:24.477Z,1.18
2023-01-29T04:10:19.185Z,1.17
2023-01-29T04:13:09.404Z,1.16
2023-01-29T04:15:47.167Z,1.22
2023-01-29T04:18:14.471Z,1.28
2023-01-29T04:20:42.140Z,1.29
2023-01-29T04:23:23.021Z,1.27
2023-01-29T04:26:08.073Z,1.18
2023-01-29T04:28:59.929Z,1.28
2023-01-29T04:31:40.058Z,1.21
2023-01-29T04:34:29.474Z,1.19
2023-01-29T04:37:02.975Z,1.22
2023-01-29T04:39:46.735Z,1.15
2023-01-29T04:42:32.948Z,1.17
2023-01-29T04:45:06.789Z,1.26
2023-01-29T04:48:12.909Z,1.14
2023-01-29T04:50:56.807Z,1.19
2023-01-29T04:53:43.435Z,1.21
2023-01-29T04:56:41.143Z,1.33
2023-01-29T04:59:14.587Z,1.26
2023-01-29T05:01:42.020Z,1.27
2023-01-29T05:04:14.512Z,1.32
2023-01-29T05:06:43.245Z,1.26
2023-01-29T05:09:12.892Z,1.21
2023-01-29T05:11:40.767Z,1.24
2023-01-29T05:14:11.721Z,1.26
2023-01-29T05:16:51.665Z,1.21
2023-01-29T05:19:18.987Z,1.18
2023-01-29T05:21:49.728Z,1.20
2023-01-29T05:24:23.365Z,1.15
2023-01-29T05:27:12.277Z,1.18
2023-01-29T05:29:47.135Z,1.17
2023-01-29T05:32:15.590Z,1.22
2023-01-29T05:34:42.874Z,1.15
2023-01-29T05:37:10.593Z,1.21
2023-01-29T05:39:37.646Z,1.17
2023-01-29T05:42:04.738Z,1.20
2023-01-29T05:44:31.837Z,1.19
2023-01-29T05:46:58.836Z,1.20
2023-01-29T05:49:26.024Z,1.21
2023-01-29T05:51:53.066Z,1.25
2023-01-29T05:54:20.157Z,1.05
2023-01-29T05:56:47.335Z,1.19
2023-01-29T05:59:16.229Z,1.26
2023-01-29T06:01:43.662Z,1.26
2023-01-29T06:04:10.820Z,1.12
2023-01-29T06:06:37.868Z,1.22
2023-01-29T06:09:04.996Z,1.13
2023-01-29T06:11:31.991Z,1.04
2023-01-29T06:13:58.971Z,1.15
2023-01-29T06:16:26.068Z,1.21
2023-01-29T06:18:53.132Z,1.20
2023-01-29T06:21:20.306Z,1.19
2023-01-29T06:23:47.506Z,1.22
2023-01-29T06:26:16.067Z,1.20
2023-01-29T06:28:45.924Z,1.24
2023-01-29T06:31:35.194Z,1.17
2023-01-29T06:33:59.973Z,1.14
2023-01-29T06:36:27.019Z,1.14
2023-01-29T06:38:54.025Z,1.13
2023-01-29T06:41:25.285Z,1.13
2023-01-29T06:43:52.617Z,1.22
2023-01-29T06:46:20.045Z,1.33
2023-01-29T06:48:47.141Z,1.33
2023-01-29T06:51:14.321Z,1.19
2023-01-29T06:53:42.809Z,1.22
2023-01-29T06:56:10.434Z,1.32
2023-01-29T06:58:38.431Z,1.31
2023-01-29T07:01:08.125Z,1.33
2023-01-29T07:03:35.649Z,1.36
2023-01-29T07:06:03.254Z,1.33
2023-01-29T07:08:30.266Z,1.34
2023-01-29T07:11:01.132Z,1.32
2023-01-29T07:13:28.748Z,1.35
2023-01-29T07:16:02.918Z,1.37
2023-01-29T07:18:31.000Z,1.40
2023-01-29T07:20:58.380Z,1.40
2023-01-29T07:23:25.917Z,1.44
2023-01-29T07:25:52.990Z,1.46
2023-01-29T07:28:20.750Z,1.45
2023-01-29T07:30:47.917Z,1.54
2023-01-29T07:33:14.917Z,1.56
2023-01-29T07:35:43.768Z,1.59
2023-01-29T07:38:12.094Z,1.80
2023-01-29T07:40:39.186Z,1.70
2023-01-29T07:43:09.677Z,1.66
2023-01-29T07:45:39.447Z,1.74
2023-01-29T07:48:10.439Z,1.75
2023-01-29T07:50:37.709Z,1.79
2023-01-29T07:53:04.912Z,1.79
2023-01-29T07:55:33.251Z,1.71
2023-01-29T07:58:03.293Z,1.71
2023-01-29T08:00:32.246Z,1.82
2023-01-29T08:03:05.383Z,1.83
2023-01-29T08:05:32.639Z,1.81
2023-01-29T08:08:06.584Z,1.71
2023-01-29T08:10:36.787Z,1.78
2023-01-29T08:13:05.575Z,1.90
2023-01-29T08:15:33.557Z,1.83
2023-01-29T08:18:02.385Z,1.94
2023-01-29T08:20:29.551Z,1.93
2023-01-29T08:23:06.022Z,1.93
2023-01-29T08:25:33.748Z,2.00
2023-01-29T08:28:01.708Z,2.03
2023-01-29T08:30:32.219Z,2.06
2023-01-29T08:32:59.308Z,2.17
2023-01-29T08:35:27.113Z,2.18
2023-01-29T08:37:59.763Z,2.14
2023-01-29T08:40:31.917Z,2.20
2023-01-29T08:43:06.283Z,2.25
2023-01-29T08:45:42.958Z,2.16
2023-01-29T08:48:10.857Z,2.15
2023-01-29T08:50:38.083Z,2.22
2023-01-29T08:53:08.528Z,2.18
2023-01-29T08:55:37.796Z,2.12
2023-01-29T08:58:07.188Z,2.18
2023-01-29T09:00:35.141Z,2.40
2023-01-29T09:03:03.253Z,2.55
2023-01-29T09:05:30.515Z,2.64
2023-01-29T09:07:58.147Z,2.53
2023-01-29T09:10:25.432Z,2.53
2023-01-29T09:12:52.422Z,2.46
2023-01-29T09:15:19.718Z,2.48
2023-01-29T09:17:46.989Z,2.62
2023-01-29T09:20:14.006Z,2.58
2023-01-29T09:22:41.659Z,2.63
2023-01-29T09:25:09.118Z,2.65
2023-01-29T09:27:36.146Z,2.62
2023-01-29T09:30:05.381Z,2.58
2023-01-29T09:32:53.697Z,2.50
2023-01-29T09:35:23.487Z,2.59
2023-01-29T09:37:52.019Z,2.62
2023-01-29T09:40:30.235Z,2.73
2023-01-29T09:43:12.872Z,2.76
2023-01-29T09:45:51.661Z,2.83
2023-01-29T09:48:19.637Z,2.92
2023-01-29T09:50:51.596Z,3.10
2023-01-29T09:53:42.943Z,3.16
2023-01-29T09:56:20.352Z,3.21
2023-01-29T09:58:48.051Z,3.13
2023-01-29T10:02:07.327Z,3.30
2023-01-29T10:05:21.350Z,3.25
2023-01-29T10:08:13.749Z,3.13
2023-01-29T10:11:16.923Z,3.09
2023-01-29T10:14:03.373Z,3.03
2023-01-29T10:16:51.461Z,2.87
2023-01-29T10:19:45.164Z,2.94
2023-01-29T10:22:53.744Z,2.80
2023-01-29T10:25:22.988Z,2.82
2023-01-29T10:27:58.156Z,2.99
2023-01-29T10:30:32.405Z,2.79
2023-01-29T10:33:04.738Z,2.82
2023-01-29T10:35:50.352Z,2.75
2023-01-29T10:38:38.860Z,2.74
2023-01-29T10:41:11.614Z,2.78
2023-01-29T10:44:15.587Z,2.81
2023-01-29T10:47:11.227Z,2.70
2023-01-29T10:49:41.017Z,2.85
2023-01-29T10:53:09.204Z,2.62
2023-01-29T10:55:57.001Z,2.79
2023-01-29T10:58:29.866Z,2.76
2023-01-29T11:00:57.184Z,2.81
2023-01-29T11:03:29.354Z,2.73
2023-01-29T11:06:13.070Z,2.73
2023-01-29T11:08:48.380Z,2.73
2023-01-29T11:11:22.361Z,2.81
2023-01-29T11:14:02.862Z,2.83
2023-01-29T11:16:33.293Z,2.82
2023-01-29T11:19:01.667Z,2.76
2023-01-29T11:21:29.841Z,2.79
2023-01-29T11:24:18.707Z,2.80
2023-01-29T11:26:49.529Z,2.63
2023-01-29T11:29:43.087Z,2.69
2023-01-29T11:32:32.740Z,2.77
2023-01-29T11:35:22.398Z,2.64
2023-01-29T11:37:49.597Z,2.60
2023-01-29T11:40:27.843Z,2.60
2023-01-29T11:42:54.838Z,2.63
2023-01-29T11:45:25.293Z,2.60
2023-01-29T11:47:57.291Z,2.74
2023-01-29T11:50:28.895Z,2.69
2023-01-29T11:52:58.352Z,2.57
2023-01-29T11:55:48.246Z,2.56
2023-01-29T11:58:27.185Z,2.43
2023-01-29T12:00:55.608Z,2.59
2023-01-29T12:03:53.182Z,2.53
2023-01-29T12:06:31.961Z,2.44
2023-01-29T12:09:02.296Z,2.44
2023-01-29T12:11:35.276Z,2.54
2023-01-29T12:14:05.796Z,2.41
2023-01-29T12:16:59.791Z,2.58
2023-01-29T12:19:48.953Z,2.52
2023-01-29T12:22:44.031Z,2.55
2023-01-29T12:25:39.403Z,2.47
2023-01-29T12:28:24.711Z,2.57
2023-01-29T12:31:23.997Z,2.46
2023-01-29T12:34:20.454Z,2.46
2023-01-29T12:37:12.346Z,2.45
2023-01-29T12:39:39.354Z,2.55
2023-01-29T12:42:19.163Z,2.45
2023-01-29T12:45:01.606Z,2.38
2023-01-29T12:47:46.999Z,2.34
2023-01-29T12:50:29.303Z,2.43
2023-01-29T12:53:34.550Z,2.60
2023-01-29T12:56:29.334Z,2.48
2023-01-29T12:58:59.174Z,2.36
2023-01-29T13:01:38.028Z,2.41
2023-01-29T13:04:14.406Z,2.37
2023-01-29T13:06:54.236Z,2.37
2023-01-29T13:09:28.372Z,2.59
2023-01-29T13:12:11.906Z,2.52
2023-01-29T13:15:05.654Z,2.45
2023-01-29T13:17:47.620Z,2.46
2023-01-29T13:20:28.003Z,2.43
2023-01-29T13:23:15.404Z,2.45
2023-01-29T13:25:43.232Z,2.40
2023-01-29T13:28:25.605Z,2.51
2023-01-29T13:31:12.282Z,2.37
2023-01-29T13:33:43.273Z,2.46
2023-01-29T13:36:28.712Z,2.45
2023-01-29T13:39:16.232Z,2.33
2023-01-29T13:41:43.872Z,2.46
2023-01-29T13:44:36.697Z,2.36
2023-01-29T13:47:11.550Z,2.40
2023-01-29T13:50:06.678Z,2.31
2023-01-29T13:52:44.601Z,2.24
2023-01-29T13:55:14.351Z,2.20
2023-01-29T13:57:44.349Z,2.13
2023-01-29T14:00:34.409Z,2.19
2023-01-29T14:03:01.318Z,2.21
2023-01-29T14:05:31.305Z,2.26
2023-01-29T14:08:03.603Z,2.28
2023-01-29T14:10:36.806Z,2.25
2023-01-29T14:13:03.664Z,2.33
2023-01-29T14:15:36.343Z,2.25
2023-01-29T14:18:09.041Z,2.32
2023-01-29T14:20:47.965Z,2.14
2023-01-29T14:23:42.079Z,2.17
2023-01-29T14:26:31.748Z,2.26
2023-01-29T14:28:58.738Z,2.37
2023-01-29T14:31:38.964Z,2.15
2023-01-29T14:34:28.257Z,2.26
2023-01-29T14:37:27.749Z,2.19
2023-01-29T14:40:20.695Z,2.21
2023-01-29T14:42:57.801Z,2.12
2023-01-29T14:45:41.950Z,2.12
2023-01-29T14:48:11.763Z,2.16
2023-01-29T14:50:50.944Z,2.15
2023-01-29T14:53:45.558Z,2.21
2023-01-29T14:56:36.617Z,2.27
2023-01-29T14:59:16.651Z,2.28
2023-01-29T15:01:58.770Z,2.25
2023-01-29T15:04:40.466Z,2.16
2023-01-29T15:07:10.477Z,2.15
2023-01-29T15:09:48.008Z,2.14
2023-01-29T15:12:36.428Z,2.18
2023-01-29T15:15:49.605Z,2.16
2023-01-29T15:18:42.397Z,2.06
2023-01-29T15:21:17.703Z,2.08
2023-01-29T15:23:48.399Z,2.11
2023-01-29T15:26:26.961Z,2.09
2023-01-29T15:29:04.937Z,2.03
2023-01-29T15:31:33.124Z,1.95
2023-01-29T15:34:07.255Z,2.13
2023-01-29T15:36:36.632Z,1.97
2023-01-29T15:39:19.023Z,1.98
2023-01-29T15:41:47.237Z,2.04
2023-01-29T15:44:18.714Z,1.85
2023-01-29T15:46:57.131Z,1.89
2023-01-29T15:49:32.042Z,1.94
2023-01-29T15:52:03.601Z,1.95
2023-01-29T15:54:35.454Z,1.91
2023-01-29T15:57:03.581Z,1.85
2023-01-29T15:59:35.538Z,1.91
2023-01-29T16:02:38.492Z,1.87
2023-01-29T16:05:13.766Z,1.91
2023-01-29T16:07:42.261Z,1.85
2023-01-29T16:10:27.316Z,1.91
2023-01-29T16:12:55.619Z,1.91
2023-01-29T16:15:35.962Z,1.85
2023-01-29T16:18:20.677Z,1.93
2023-01-29T16:20:53.754Z,1.85
2023-01-29T16:23:29.563Z,1.90
2023-01-29T16:26:05.260Z,1.84
2023-01-29T16:28:32.752Z,1.92
2023-01-29T16:31:03.861Z,1.95
2023-01-29T16:33:38.333Z,1.86
2023-01-29T16:36:23.906Z,1.91
2023-01-29T16:39:01.734Z,1.79
2023-01-29T16:41:38.285Z,1.90
2023-01-29T16:44:35.207Z,1.96
2023-01-29T16:47:14.451Z,1.91
2023-01-29T16:49:48.762Z,1.88
2023-01-29T16:52:25.361Z,1.82
2023-01-29T16:55:00.688Z,1.86
2023-01-29T16:57:33.300Z,1.83
2023-01-29T17:00:06.475Z,1.76
2023-01-29T17:02:39.098Z,1.80
2023-01-29T17:05:16.842Z,1.75
2023-01-29T17:07:46.476Z,1.87
2023-01-29T17:10:21.554Z,1.86
2023-01-29T17:13:01.003Z,1.78
2023-01-29T17:15:43.134Z,1.81
2023-01-29T17:18:21.477Z,1.78
2023-01-29T17:20:50.465Z,1.85
2023-01-29T17:23:17.533Z,1.79
2023-01-29T17:25:45.599Z,1.82
2023-01-29T17:28:15.667Z,1.79
2023-01-29T17:30:44.916Z,1.86
2023-01-29T17:33:22.848Z,1.90
2023-01-29T17:35:50.401Z,1.85
2023-01-29T17:38:25.850Z,1.80
2023-01-29T17:41:07.574Z,1.87
2023-01-29T17:43:35.107Z,1.78
2023-01-29T17:46:02.267Z,1.84
2023-01-29T17:48:31.188Z,1.79
2023-01-29T17:51:03.830Z,1.91
2023-01-29T17:53:44.904Z,1.77
2023-01-29T17:56:21.439Z,1.85
2023-01-29T17:58:48.473Z,1.67
2023-01-29T18:01:15.604Z,1.76
2023-01-29T18:03:42.695Z,1.75
2023-01-29T18:06:12.706Z,1.82
2023-01-29T18:08:40.307Z,1.90
2023-01-29T18:11:09.888Z,1.90
2023-01-29T18:13:37.228Z,1.86
2023-01-29T18:16:04.424Z,1.93
2023-01-29T18:18:31.498Z,2.02
2023-01-29T18:20:58.529Z,1.74
2023-01-29T18:23:25.593Z,1.85
2023-01-29T18:25:54.721Z,1.91
2023-01-29T18:28:21.709Z,1.88
2023-01-29T18:30:48.726Z,1.72
2023-01-29T18:33:16.951Z,1.87
2023-01-29T18:35:45.739Z,1.90
2023-01-29T18:38:12.760Z,1.96
2023-01-29T18:40:39.974Z,1.81
2023-01-29T18:43:07.506Z,1.82
2023-01-29T18:45:34.544Z,1.96
2023-01-29T18:48:01.715Z,1.83
2023-01-29T18:50:28.695Z,1.84
2023-01-29T18:52:56.442Z,1.88
2023-01-29T18:55:24.314Z,1.80
2023-01-29T18:58:28.186Z,1.76
2023-01-29T19:00:42.525Z,1.78
2023-01-29T19:03:11.207Z,1.83
2023-01-29T19:05:38.343Z,1.89
2023-01-29T19:08:05.885Z,1.93
2023-01-29T19:10:33.603Z,1.81
2023-01-29T19:13:00.665Z,1.88
2023-01-29T19:15:28.079Z,1.82
2023-01-29T19:17:56.082Z,1.89
2023-01-29T19:20:23.309Z,1.82
2023-01-29T19:22:50.401Z,1.88
2023-01-29T19:25:19.604Z,1.85
2023-01-29T19:27:46.884Z,1.76
2023-01-29T19:30:14.167Z,2.31
2023-01-29T19:32:41.471Z,2.19
2023-01-29T19:35:08.587Z,1.99
2023-01-29T19:37:35.814Z,1.97
2023-01-29T19:40:02.901Z,1.91
2023-01-29T19:42:29.981Z,2.01
2023-01-29T19:44:56.959Z,2.10
2023-01-29T19:47:24.057Z,1.95
2023-01-29T19:49:51.174Z,1.86
2023-01-29T19:52:50.212Z,1.87
2023-01-29T19:55:19.198Z,1.93
2023-01-29T19:57:47.235Z,1.91
2023-01-29T20:00:15.570Z,1.94
2023-01-29T20:02:42.651Z,2.08
2023-01-29T20:05:12.067Z,2.05
2023-01-29T20:07:42.605Z,1.98
2023-01-29T20:10:16.958Z,2.01
2023-01-29T20:12:45.699Z,1.95
2023-01-29T20:15:14.738Z,1.94
2023-01-29T20:17:41.792Z,1.99
2023-01-29T20:20:11.582Z,1.97
2023-01-29T20:22:38.602Z,2.02
2023-01-29T20:25:06.144Z,2.03
2023-01-29T20:27:33.156Z,1.95
2023-01-29T20:30:00.183Z,1.95
2023-01-29T20:32:27.221Z,1.99
2023-01-29T20:34:54.284Z,1.93
2023-01-29T20:37:21.299Z,2.02
2023-01-29T20:39:48.419Z,1.92
2023-01-29T20:42:15.433Z,1.87
2023-01-29T20:44:42.488Z,1.83
2023-01-29T20:47:09.658Z,2.02
2023-01-29T20:49:36.707Z,2.17
2023-01-29T20:52:03.762Z,2.21
2023-01-29T20:54:33.239Z,2.21
2023-01-29T20:57:00.541Z,2.30
2023-01-29T20:59:29.213Z,2.31
2023-01-29T21:01:56.340Z,2.31
2023-01-29T21:04:23.509Z,2.30
2023-01-29T21:06:50.574Z,2.23
2023-01-29T21:09:17.587Z,2.20
2023-01-29T21:11:45.140Z,2.23
2023-01-29T21:14:12.580Z,2.15
2023-01-29T21:16:39.985Z,2.23
2023-01-29T21:19:07.103Z,2.19
2023-01-29T21:21:34.736Z,2.21
2023-01-29T21:24:01.763Z,2.12
2023-01-29T21:26:28.850Z,2.13
2023-01-29T21:28:55.859Z,2.11
2023-01-29T21:31:23.058Z,2.18
2023-01-29T21:33:50.266Z,2.26
2023-01-29T21:36:17.312Z,2.30
2023-01-29T21:38:44.438Z,2.27
2023-01-29T21:41:11.469Z,2.28
2023-01-29T21:43:39.104Z,2.19
2023-01-29T21:46:17.221Z,2.25
2023-01-29T21:48:44.317Z,2.07
2023-01-29T21:51:11.327Z,2.07
2023-01-29T21:53:38.476Z,2.07
2023-01-29T21:56:06.217Z,2.03
2023-01-29T21:58:33.397Z,2.17
2023-01-29T22:01:34.538Z,2.17
2023-01-29T22:03:47.783Z,2.19
2023-01-29T22:06:15.550Z,2.19
2023-01-29T22:08:42.711Z,2.17
2023-01-29T22:11:10.410Z,2.17
2023-01-29T22:13:37.681Z,2.13
2023-01-29T22:16:06.062Z,2.09
2023-01-29T22:18:33.702Z,2.16
2023-01-29T22:21:04.144Z,2.11
2023-01-29T22:23:32.361Z,2.14
2023-01-29T22:26:04.789Z,2.28
2023-01-29T22:28:31.796Z,2.19
2023-01-29T22:31:05.601Z,2.12
2023-01-29T22:33:33.554Z,2.14
2023-01-29T22:36:01.297Z,2.13
2023-01-29T22:38:28.905Z,2.21
2023-01-29T22:40:57.724Z,2.15
2023-01-29T22:43:26.074Z,2.18
2023-01-29T22:45:53.214Z,2.16
2023-01-29T22:48:22.221Z,2.05
2023-01-29T22:51:09.421Z,2.07
2023-01-29T22:53:50.473Z,2.12
2023-01-29T22:56:19.270Z,2.09
2023-01-29T22:58:57.990Z,2.11
2023-01-29T23:01:29.207Z,2.25
2023-01-29T23:03:56.537Z,2.23
2023-01-29T23:06:24.077Z,2.23
2023-01-29T23:08:51.898Z,2.16
2023-01-29T23:11:21.498Z,2.19
2023-01-29T23:13:52.153Z,2.16
2023-01-29T23:16:21.974Z,2.16
2023-01-29T23:18:54.580Z,2.27
2023-01-29T23:21:25.096Z,2.27
2023-01-29T23:23:54.252Z,2.25
2023-01-29T23:26:40.161Z,2.37
2023-01-29T23:29:07.192Z,2.34
2023-01-29T23:31:34.182Z,2.30
2023-01-29T23:34:01.390Z,2.26
2023-01-29T23:36:28.570Z,2.28
2023-01-29T23:38:55.665Z,2.28
2023-01-29T23:41:23.026Z,2.28
2023-01-29T23:43:50.234Z,2.21
2023-01-29T23:46:17.248Z,2.17
2023-01-29T23:48:44.301Z,2.28
2023-01-29T23:51:11.427Z,2.40
2023-01-29T23:53:38.838Z,2.38
2023-01-29T23:56:07.016Z,2.33
2023-01-29T23:58:34.212Z,2.35
